Time;durP1;ratioP1;P1;durP2;ratioP2;P2;SDS_P1;SDS_P2;PMS_P1;PMS_P2;Temp;Humidity;BMP_temperature;BMP_pressure;BME280_temperature;BME280_humidity;BME280_pressure;Samples;Min_cycle;Max_cycle;Signal;HPM_P1;HPM_P2
2021/01/26 00:00:25;;;;;;;30.17;9.40;;;6.40;99.90;;;6.50;78.12;100945.28;5093257;28;20044;-71
2021/01/26 00:02:53;;;;;;;32.70;9.00;;;6.40;99.90;;;6.48;78.01;100926.88;5092962;28;20055;-71
2021/01/26 00:05:20;;;;;;;27.67;9.03;;;6.40;99.90;;;6.51;77.34;100954.91;5074736;28;20058;-70
2021/01/26 00:07:48;;;;;;;25.33;7.83;;;6.40;99.90;;;6.34;77.13;100923.19;5092805;28;20455;-70
2021/01/26 00:10:16;;;;;;;24.60;7.93;;;6.40;99.90;;;6.48;76.85;100939.13;5074547;28;20044;-71
2021/01/26 00:12:45;;;;;;;25.97;8.57;;;6.40;99.90;;;6.62;76.60;100954.19;5092632;28;20044;-70
2021/01/26 00:15:13;;;;;;;21.80;8.13;;;6.50;99.90;;;6.62;76.98;100950.69;5092656;28;20122;-70
2021/01/26 00:17:41;;;;;;;31.23;8.37;;;6.50;99.90;;;6.62;76.99;100963.84;5074423;28;20139;-70
2021/01/26 00:20:11;;;;;;;28.87;9.60;;;6.50;99.90;;;6.41;78.04;100942.53;5092652;28;20044;-71
2021/01/26 00:22:39;;;;;;;28.27;9.93;;;6.50;99.90;;;6.48;78.33;100958.41;5094397;28;20040;-70
2021/01/26 00:25:10;;;;;;;35.20;9.87;;;6.40;99.90;;;6.49;78.36;100957.53;5078602;28;20040;-70
2021/01/26 00:27:38;;;;;;;27.80;8.73;;;6.50;99.90;;;6.44;78.07;100939.94;5096795;28;20043;-70
2021/01/26 00:30:09;;;;;;;29.77;8.73;;;6.40;99.90;;;6.21;78.01;100948.38;5078642;28;20563;-70
2021/01/26 00:32:36;;;;;;;34.15;8.95;;;6.40;99.90;;;6.45;77.91;100976.75;5078524;28;20048;-70
2021/01/26 00:35:05;;;;;;;31.63;10.10;;;6.40;99.90;;;6.28;78.05;100947.63;5096533;28;20028;-70
2021/01/26 00:37:33;;;;;;;30.20;9.68;;;6.30;99.90;;;6.43;78.00;100972.34;5078598;28;20105;-70
2021/01/26 00:40:01;;;;;;;27.07;8.53;;;6.30;99.90;;;6.47;77.52;100979.38;5096542;28;20044;-70
2021/01/26 00:42:29;;;;;;;27.83;8.87;;;6.40;99.90;;;6.39;77.90;100972.28;5096496;28;20040;-71
2021/01/26 00:44:58;;;;;;;32.30;9.67;;;6.40;99.90;;;6.47;77.79;100968.88;5078318;28;20044;-70
2021/01/26 00:47:25;;;;;;;32.73;9.10;;;6.40;99.90;;;6.35;78.29;100980.09;5096396;28;20047;-71
2021/01/26 00:49:53;;;;;;;31.83;8.90;;;6.40;99.90;;;6.39;78.45;100977.53;5096208;28;20078;-70
2021/01/26 00:52:21;;;;;;;31.10;8.50;;;6.30;99.90;;;6.48;78.31;100989.94;5078126;28;20048;-70
2021/01/26 00:54:49;;;;;;;37.30;8.33;;;6.40;99.90;;;6.45;78.18;100997.75;5078104;28;20562;-71
2021/01/26 00:57:19;;;;;;;35.87;9.33;;;6.40;99.90;;;6.43;78.10;100980.22;5077958;28;20048;-71
2021/01/26 00:59:47;;;;;;;26.47;8.43;;;6.40;99.90;;;6.20;78.03;100959.75;5077962;28;20048;-70
2021/01/26 01:02:17;;;;;;;27.97;8.43;;;6.40;99.90;;;6.44;78.20;101005.63;5077715;28;20047;-71
2021/01/26 01:04:47;;;;;;;28.75;8.63;;;6.40;99.90;;;6.54;78.53;101004.91;5078066;28;20098;-71
2021/01/26 01:07:15;;;;;;;35.67;9.40;;;6.40;99.90;;;6.59;78.67;101001.47;5077924;28;20052;-70
2021/01/26 01:09:42;;;;;;;30.23;8.73;;;6.50;99.90;;;6.47;78.65;100990.78;5096229;28;20040;-70
2021/01/26 01:12:10;;;;;;;35.23;9.47;;;6.40;99.90;;;6.52;78.26;101004.00;5095894;28;20069;-70
2021/01/26 01:14:39;;;;;;;31.17;8.90;;;6.40;99.90;;;6.56;77.67;101009.31;5077499;28;20146;-70
2021/01/26 01:17:08;;;;;;;26.23;7.87;;;6.50;99.90;;;6.61;78.27;101030.38;5095754;28;20058;-71
2021/01/26 01:19:37;;;;;;;29.20;8.23;;;6.50;99.90;;;6.36;79.81;101019.53;5095950;28;20051;-70
2021/01/26 01:22:04;;;;;;;25.43;7.40;;;6.40;99.90;;;6.36;80.44;101023.91;5095724;28;20107;-70
2021/01/26 01:24:31;;;;;;;30.63;8.07;;;6.30;99.90;;;6.32;81.02;101033.47;5096021;28;20109;-70
2021/01/26 01:26:59;;;;;;;33.40;8.57;;;6.20;99.90;;;6.43;80.89;101049.38;5095685;28;20129;-70
2021/01/26 01:29:31;;;;;;;16.93;7.67;;;6.30;99.90;;;5.70;79.99;100950.19;5095531;28;20040;-70
2021/01/26 01:31:58;;;;;;;13.33;6.37;;;6.30;99.90;;;6.14;80.16;101058.56;5095578;28;20485;-70
2021/01/26 01:34:26;;;;;;;12.50;5.70;;;6.10;99.90;;;6.09;79.97;101045.38;5094901;28;20072;-70
2021/01/26 01:36:54;;;;;;;17.70;6.03;;;6.00;99.90;;;6.11;79.72;101059.41;5095519;28;20044;-70
2021/01/26 01:39:22;;;;;;;17.93;6.70;;;6.00;99.90;;;6.19;79.88;101056.91;5095428;28;20040;-70
2021/01/26 01:41:49;;;;;;;24.47;7.53;;;6.10;99.90;;;6.17;79.98;101056.88;5076981;28;20044;-71
2021/01/26 01:44:17;;;;;;;27.53;8.07;;;6.10;99.90;;;6.15;81.21;101050.72;5095502;28;20044;-70
2021/01/26 01:46:53;;;;;;;31.37;8.70;;;6.10;99.90;;;6.11;81.58;101042.75;5095279;28;20048;-70
2021/01/26 01:49:26;;;;;;;26.57;8.67;;;6.10;99.90;;;6.22;81.43;101060.47;5095417;28;20044;-70
2021/01/26 01:51:56;;;;;;;30.77;9.37;;;6.20;99.90;;;6.31;81.28;101055.34;5095103;28;20048;-70
2021/01/26 01:54:30;;;;;;;30.10;8.05;;;6.30;99.90;;;6.38;81.42;101075.63;5094945;28;20050;-71
2021/01/26 01:57:03;;;;;;;36.67;8.93;;;6.30;99.90;;;6.22;81.48;101030.69;5095260;28;20044;-70
2021/01/26 01:59:37;;;;;;;35.67;8.43;;;6.40;99.90;;;6.59;80.74;101069.78;5095031;28;20382;-70
2021/01/26 02:02:07;;;;;;;35.93;8.57;;;6.40;99.90;;;6.57;80.48;101095.16;5094978;28;20044;-70
2021/01/26 02:04:36;;;;;;;34.37;8.90;;;6.50;99.90;;;6.45;79.94;101066.06;5094995;28;20048;-70
2021/01/26 02:07:05;;;;;;;34.40;8.47;;;6.50;99.90;;;6.59;79.68;101074.16;5095088;28;20481;-70
2021/01/26 02:09:36;;;;;;;31.13;8.67;;;6.50;99.90;;;6.47;79.60;101068.69;5094814;28;20054;-70
2021/01/26 02:12:05;;;;;;;29.02;8.15;;;6.50;99.90;;;6.57;79.05;101081.13;5094831;28;20062;-70
2021/01/26 02:14:37;;;;;;;23.77;8.03;;;6.50;99.90;;;5.90;78.78;100969.81;5094616;28;20481;-71
2021/01/26 02:17:23;;;;;;;30.60;8.37;;;6.50;99.90;;;6.43;78.58;101059.03;5094432;28;20048;-70
2021/01/26 02:20:48;;;;;;;30.50;8.73;;;6.50;99.90;;;6.63;78.97;101090.00;5094730;28;20043;-70
2021/01/26 02:23:45;;;;;;;28.57;8.60;;;6.50;99.90;;;6.61;79.33;101093.44;5093765;28;20048;-70
2021/01/26 02:27:20;;;;;;;31.90;9.43;;;6.50;99.90;;;6.66;79.35;101086.53;5094675;28;20497;-71
2021/01/26 02:30:32;;;;;;;36.37;8.13;;;6.60;99.90;;;6.70;79.32;101104.09;5094372;28;20048;-70
2021/01/26 02:34:05;;;;;;;27.53;7.87;;;6.60;99.90;;;6.55;80.88;101112.63;5048094;28;20052;-70
2021/01/26 02:37:24;;;;;;;26.60;7.50;;;6.50;99.90;;;6.15;82.81;101108.50;5094567;28;20144;-70
2021/01/26 02:40:00;;;;;;;20.40;7.87;;;6.20;99.90;;;6.07;83.58;101119.72;5094508;28;20051;-70
2021/01/26 02:42:59;;;;;;;23.30;7.77;;;6.00;99.90;;;6.00;83.89;101121.31;5076024;28;20093;-70
2021/01/26 02:45:36;;;;;;;25.07;8.03;;;5.90;99.90;;;6.04;84.35;101119.66;5075296;28;20055;-70
2021/01/26 02:48:32;;;;;;;28.80;8.03;;;5.90;99.90;;;5.95;85.05;101109.88;5094210;28;20052;-70
2021/01/26 02:51:05;;;;;;;30.27;8.80;;;5.90;99.90;;;5.25;85.92;101005.34;5094348;28;20393;-70
2021/01/26 02:53:39;;;;;;;31.43;8.50;;;5.90;99.90;;;6.12;86.09;101137.31;5093886;28;20052;-70
2021/01/26 02:56:18;;;;;;;31.83;8.93;;;6.00;99.90;;;6.02;86.02;101122.25;5094040;28;20382;-71
2021/01/26 02:58:52;;;;;;;43.70;8.90;;;5.90;99.90;;;6.00;85.15;101115.22;5093922;28;20424;-70
2021/01/26 03:01:20;;;;;;;33.43;8.33;;;6.00;99.90;;;6.11;84.77;101147.78;5093857;28;20044;-70
2021/01/26 03:03:52;;;;;;;39.13;9.37;;;6.00;99.90;;;6.06;84.50;101123.19;5093971;28;20048;-70
2021/01/26 03:06:23;;;;;;;34.13;8.67;;;6.10;99.90;;;6.11;84.19;101148.69;5093912;28;20040;-70
2021/01/26 03:08:59;;;;;;;27.50;8.40;;;6.00;99.90;;;6.05;83.88;101139.81;5093729;28;20428;-70
2021/01/26 03:11:33;;;;;;;32.63;8.53;;;6.00;99.90;;;6.06;83.29;101142.44;5093671;28;20047;-71
2021/01/26 03:14:13;;;;;;;24.53;7.30;;;6.00;99.90;;;6.03;82.89;101142.41;5075606;28;20043;-70
2021/01/26 03:16:44;;;;;;;33.95;8.30;;;5.90;99.90;;;5.98;82.84;101145.81;5093352;28;20056;-70
2021/01/26 03:19:16;;;;;;;33.20;8.87;;;5.90;99.90;;;6.00;82.53;101141.47;5075255;28;20101;-70
2021/01/26 03:21:49;;;;;;;35.83;9.17;;;5.90;99.90;;;5.84;82.29;101098.31;5093437;28;20421;-70
2021/01/26 03:24:22;;;;;;;34.10;9.33;;;6.00;99.90;;;6.11;82.78;101147.78;5093393;28;20058;-70
2021/01/26 03:26:51;;;;;;;30.27;8.57;;;6.00;99.90;;;6.04;82.84;101115.28;5093400;28;20376;-70
2021/01/26 03:29:27;;;;;;;32.70;9.03;;;6.10;99.90;;;6.17;82.38;101148.78;5093325;28;20119;-70
2021/01/26 03:31:58;;;;;;;28.13;8.17;;;6.10;99.90;;;6.07;82.21;101159.97;5093337;28;20044;-71
2021/01/26 03:34:27;;;;;;;32.27;8.30;;;6.10;99.90;;;6.23;82.40;101142.75;5093125;28;20055;-71
2021/01/26 03:36:54;;;;;;;32.00;8.73;;;6.10;99.90;;;6.23;82.71;101158.53;5093173;28;20071;-70
2021/01/26 03:39:22;;;;;;;31.33;9.17;;;6.20;99.90;;;6.17;82.94;101166.28;5093231;28;20460;-70
2021/01/26 03:41:50;;;;;;;38.80;8.57;;;6.10;99.90;;;6.14;83.16;101171.47;5093116;28;20125;-70
2021/01/26 03:44:17;;;;;;;29.47;9.43;;;6.10;99.90;;;6.25;83.26;101162.91;5093076;28;20157;-70
2021/01/26 03:47:21;;;;;;;28.27;7.97;;;6.10;99.90;;;6.22;82.45;101178.63;5074885;28;20447;-70
2021/01/26 03:50:09;;;;;;;30.70;9.20;;;6.10;99.90;;;6.18;82.66;101174.19;5093185;28;20054;-70
2021/01/26 03:53:27;;;;;;;29.90;8.47;;;6.10;99.90;;;6.27;82.11;101183.97;5092974;28;20044;-70
2021/01/26 03:56:05;;;;;;;31.63;7.77;;;6.20;99.90;;;6.30;82.19;101187.53;5092920;28;20055;-70
2021/01/26 03:58:50;;;;;;;28.00;8.53;;;6.20;99.90;;;6.39;81.86;101187.69;5092894;28;20047;-71
2021/01/26 04:01:29;;;;;;;28.87;8.47;;;6.30;99.90;;;6.43;81.98;101190.41;5093012;28;20169;-72
2021/01/26 04:04:04;;;;;;;30.67;8.50;;;6.30;99.90;;;6.39;81.63;101173.66;5092892;28;20043;-70
2021/01/26 04:06:38;;;;;;;30.17;8.73;;;6.30;99.90;;;6.34;81.26;101209.50;5093031;28;20092;-70
2021/01/26 04:09:10;;;;;;;30.13;7.60;;;6.30;99.90;;;6.37;81.19;101188.50;5092716;28;20044;-70
2021/01/26 04:11:47;;;;;;;26.93;8.43;;;6.30;99.90;;;6.38;81.47;101200.81;5092821;28;20044;-70
2021/01/26 04:14:22;;;;;;;27.43;7.93;;;6.30;99.90;;;6.37;80.87;101201.66;5092586;28;20067;-70
2021/01/26 04:16:53;;;;;;;29.33;8.17;;;6.30;99.90;;;6.47;80.93;101210.56;5092706;28;20060;-70
2021/01/26 04:19:26;;;;;;;34.70;8.80;;;6.40;99.90;;;6.49;80.48;101208.88;5074701;28;20048;-70
2021/01/26 04:21:54;;;;;;;29.80;7.87;;;6.40;99.90;;;6.57;80.23;101209.88;5092718;28;20044;-70
2021/01/26 04:24:21;;;;;;;31.80;8.40;;;6.50;99.90;;;6.51;80.53;101212.41;5092593;28;20094;-70
2021/01/26 04:26:50;;;;;;;26.30;7.47;;;6.40;99.90;;;6.54;80.47;101220.34;5092774;28;20509;-70
2021/01/26 04:29:18;;;;;;;28.80;7.93;;;6.40;99.90;;;6.44;80.33;101221.03;5092582;28;20066;-70
2021/01/26 04:31:46;;;;;;;22.43;7.73;;;6.40;99.90;;;6.45;79.82;101231.56;5092485;28;20052;-70
2021/01/26 04:34:13;;;;;;;30.80;8.73;;;6.40;99.90;;;6.43;79.56;101245.56;5092544;28;20040;-70
2021/01/26 04:36:41;;;;;;;22.73;7.07;;;6.30;99.90;;;6.39;79.06;101229.72;5074445;28;20059;-70
2021/01/26 04:39:08;;;;;;;38.70;9.07;;;6.30;99.90;;;6.33;79.34;101219.09;5092332;28;20044;-70
2021/01/26 04:41:43;;;;;;;33.90;8.60;;;6.30;99.90;;;6.47;79.67;101228.97;5074543;28;20139;-70
2021/01/26 04:44:36;;;;;;;33.90;8.50;;;6.40;99.90;;;6.45;80.02;101234.19;5092510;28;20490;-70
2021/01/26 04:47:14;;;;;;;33.07;8.27;;;6.30;99.90;;;6.52;80.12;101230.84;5092457;28;20378;-70
2021/01/26 04:49:55;;;;;;;36.70;9.53;;;6.50;99.90;;;6.53;80.42;101237.84;5074218;28;20036;-70
2021/01/26 04:52:42;;;;;;;33.73;9.40;;;6.50;99.90;;;6.59;80.56;101261.63;5092644;28;20550;-70
2021/01/26 04:55:22;;;;;;;34.07;8.13;;;6.50;99.90;;;6.71;80.36;101250.44;5092362;28;20043;-70
2021/01/26 04:58:16;;;;;;;33.72;8.27;;;6.60;99.90;;;6.65;79.93;101252.94;5092312;28;20052;-70
2021/01/26 05:00:58;;;;;;;30.90;7.73;;;6.60;99.90;;;6.61;79.75;101259.91;5074386;28;20044;-71
2021/01/26 05:03:38;;;;;;;36.53;8.80;;;6.60;99.90;;;6.49;79.53;101248.28;5092427;28;20055;-68
2021/01/26 05:06:11;;;;;;;19.52;7.57;;;6.50;99.90;;;6.57;79.88;101251.94;5092278;28;20489;-67
2021/01/26 05:08:44;;;;;;;33.03;8.57;;;6.50;99.90;;;6.61;80.09;101261.63;5093857;28;20059;-64
2021/01/26 05:11:16;;;;;;;38.63;9.17;;;6.50;99.90;;;6.61;80.39;101280.94;5096017;28;20044;-66
2021/01/26 05:13:48;;;;;;;29.77;8.13;;;6.50;99.90;;;6.65;80.33;101279.22;5095916;28;20047;-66
2021/01/26 05:16:25;;;;;;;29.57;8.07;;;6.50;99.90;;;6.63;80.38;101286.19;5095770;28;20052;-66
2021/01/26 05:18:57;;;;;;;39.13;8.53;;;6.50;99.90;;;6.43;80.38;101251.69;5077568;28;20040;-67
2021/01/26 05:21:34;;;;;;;33.53;8.50;;;6.50;99.90;;;6.64;80.64;101285.38;5095862;28;20047;-67
2021/01/26 05:24:15;;;;;;;33.07;9.20;;;6.50;99.90;;;6.05;81.26;101172.19;5077660;28;20497;-65
2021/01/26 05:26:42;;;;;;;34.65;9.63;;;6.60;99.90;;;6.55;82.28;101286.06;5077585;28;20036;-65
2021/01/26 05:29:13;;;;;;;33.80;9.47;;;6.50;99.90;;;6.55;83.21;101293.06;5095502;28;20044;-65
2021/01/26 05:31:43;;;;;;;24.85;9.07;;;6.40;99.90;;;6.50;83.60;101284.22;5077726;28;20043;-65
2021/01/26 05:34:13;;;;;;;;;;;6.40;99.90;;;6.37;83.19;101281.34;5095962;28;20071;-64
2021/01/26 05:36:45;;;;;;;34.73;8.87;;;6.30;99.90;;;6.39;83.22;101289.25;5095564;28;19920;-65
2021/01/26 05:39:17;;;;;;;29.67;9.50;;;6.30;99.90;;;6.37;82.81;101293.59;5095602;28;20081;-64
2021/01/26 05:41:44;;;;;;;42.97;9.00;;;6.30;99.90;;;6.39;82.88;101305.03;5077189;28;20051;-72
2021/01/26 05:44:12;;;;;;;27.33;9.17;;;6.30;99.90;;;6.41;82.73;101305.06;5095343;28;20452;-68
2021/01/26 05:46:45;;;;;;;31.23;8.70;;;6.30;99.90;;;6.33;83.16;101311.03;5095237;28;20040;-68
2021/01/26 05:49:36;;;;;;;40.60;9.27;;;6.30;99.90;;;6.37;83.25;101312.88;5095307;28;20044;-68
2021/01/26 05:52:06;;;;;;;28.73;8.17;;;6.30;99.90;;;6.34;83.09;101311.94;5095138;28;20052;-67
2021/01/26 05:54:35;;;;;;;;;;;6.30;99.90;;;6.37;82.87;101306.72;5095536;28;20374;-68
2021/01/26 05:57:04;;;;;;;34.00;8.87;;;6.30;99.90;;;6.33;82.96;101332.06;5095042;28;19965;-68
2021/01/26 05:59:36;;;;;;;31.97;9.47;;;6.30;99.90;;;6.29;82.90;101330.22;5095176;28;20052;-69
2021/01/26 06:02:16;;;;;;;37.93;9.13;;;6.20;99.90;;;6.49;82.68;101335.88;5095073;28;20074;-70
2021/01/26 06:04:44;;;;;;;35.42;8.30;;;6.40;99.90;;;6.59;82.16;101337.84;5094939;28;20105;-70
2021/01/26 06:07:24;;;;;;;40.97;8.90;;;6.50;99.90;;;6.59;81.60;101340.47;5076976;28;20406;-69
2021/01/26 06:09:52;;;;;;;35.75;9.25;;;6.50;99.90;;;6.50;82.45;101342.03;5094775;28;20059;-70
2021/01/26 06:12:22;;;;;;;33.70;10.03;;;6.40;99.90;;;6.41;82.94;101323.47;5094801;28;20486;-70
2021/01/26 06:15:05;;;;;;;39.58;9.38;;;6.40;99.90;;;6.46;82.86;101333.19;5094718;28;20052;-70
2021/01/26 06:17:36;;;;;;;38.20;9.23;;;6.40;99.90;;;6.43;82.83;101345.41;5094908;28;20052;-69
2021/01/26 06:20:09;;;;;;;36.63;9.20;;;6.40;99.90;;;6.49;82.65;101356.91;5094620;28;20431;-69
2021/01/26 06:22:37;;;;;;;33.97;8.47;;;6.40;99.90;;;6.46;82.88;101359.47;5094535;28;20378;-70
2021/01/26 06:25:12;;;;;;;31.63;8.57;;;6.40;99.90;;;6.45;82.91;101360.31;5094656;28;20052;-70
2021/01/26 06:28:07;;;;;;;31.57;8.27;;;6.30;99.90;;;5.59;83.18;101250.84;5094471;28;20122;-70
2021/01/26 06:30:43;;;;;;;14.47;6.07;;;6.30;99.90;;;6.05;83.00;101379.63;5094516;28;20067;-71
2021/01/26 06:33:47;;;;;;;9.93;4.93;;;6.00;99.90;;;5.99;82.99;101379.50;5094458;28;20127;-70
2021/01/26 06:36:46;;;;;;;13.70;5.53;;;5.90;99.90;;;5.99;83.01;101383.84;5094369;28;20044;-70
2021/01/26 06:39:57;;;;;;;15.97;5.53;;;5.90;99.90;;;5.81;83.91;101391.25;5046706;28;20052;-70
2021/01/26 06:42:42;;;;;;;15.27;5.50;;;5.80;99.90;;;5.85;83.91;101391.41;5094696;28;20044;-70
2021/01/26 06:45:19;;;;;;;13.47;5.37;;;5.80;99.90;;;6.05;83.66;101397.09;5094226;28;20056;-70
2021/01/26 06:48:27;;;;;;;12.07;4.80;;;5.90;99.90;;;6.24;83.26;101405.44;5094182;28;20074;-71
2021/01/26 06:51:18;;;;;;;14.80;5.43;;;6.10;99.90;;;6.07;83.86;101412.06;5094198;28;20101;-70
2021/01/26 06:53:54;;;;;;;;;;;6.00;99.90;;;6.08;84.08;101416.44;5094794;28;20425;-70
2021/01/26 06:56:56;;;;;;;9.20;5.13;;;6.00;99.90;;;6.12;84.31;101427.88;5094000;28;20278;-70
2021/01/26 07:00:07;;;;;;;17.07;5.37;;;6.00;99.90;;;6.06;85.21;101433.00;5093804;28;20052;-70
2021/01/26 07:03:10;;;;;;;15.07;5.97;;;6.00;99.90;;;6.00;85.52;101427.63;5093764;28;20051;-70
2021/01/26 07:06:11;;;;;;;15.57;5.33;;;6.00;99.90;;;5.94;86.36;101438.84;5093839;28;20040;-70
2021/01/26 07:09:26;;;;;;;20.73;7.17;;;5.90;99.90;;;5.86;86.23;101419.44;5067199;28;20052;-70
2021/01/26 07:12:29;;;;;;;16.47;5.67;;;5.90;99.90;;;6.01;86.31;101442.53;5091058;28;20056;-70
2021/01/26 07:15:42;;;;;;;16.43;4.90;;;5.90;99.90;;;6.18;85.99;101447.31;5093671;28;20374;-70
2021/01/26 07:18:35;;;;;;;13.53;5.00;;;6.00;99.90;;;6.19;85.96;101450.84;5056535;28;20059;-70
2021/01/26 07:21:19;;;;;;;20.00;5.57;;;6.00;99.90;;;6.13;85.73;101459.47;5093538;28;20045;-70
2021/01/26 07:24:06;;;;;;;19.37;5.40;;;6.00;99.90;;;6.25;85.77;101472.84;5093410;28;20043;-70
2021/01/26 07:27:22;;;;;;;24.87;5.67;;;6.00;99.90;;;6.17;85.15;101458.69;5093519;28;20054;-70
2021/01/26 07:30:01;;;;;;;16.93;5.17;;;6.10;99.90;;;6.20;85.17;101470.97;5093504;28;20040;-70
2021/01/26 07:32:36;;;;;;;20.03;6.53;;;6.20;99.90;;;6.15;85.58;101476.16;5092735;28;20119;-70
2021/01/26 07:35:15;;;;;;;14.20;5.57;;;6.10;99.90;;;6.26;86.07;101479.91;5093260;28;20464;-71
2021/01/26 07:37:53;;;;;;;20.90;5.47;;;6.10;99.90;;;6.08;85.50;101484.72;5093370;28;20052;-70
2021/01/26 07:40:32;;;;;;;12.97;4.80;;;6.10;99.90;;;6.07;84.64;101490.84;5093600;28;20044;-70
2021/01/26 07:43:10;;;;;;;11.90;4.80;;;6.00;99.90;;;5.82;84.15;101483.19;5093181;28;20048;-71
2021/01/26 07:45:51;;;;;;;12.87;5.20;;;5.80;99.90;;;5.79;82.79;101496.22;5093119;28;20052;-71
2021/01/26 07:48:33;;;;;;;11.07;4.93;;;5.70;99.90;;;5.83;82.38;101487.59;5075059;28;20055;-71
2021/01/26 07:51:06;;;;;;;9.63;4.47;;;5.70;99.90;;;5.77;82.23;101503.16;5093010;28;20044;-70
2021/01/26 07:53:46;;;;;;;4.70;4.23;;;5.70;99.90;;;5.77;81.75;101502.31;5093142;28;20067;-71
2021/01/26 07:56:22;;;;;;;9.00;4.80;;;5.70;99.90;;;5.71;82.11;101531.00;5092902;28;20051;-70
2021/01/26 07:58:50;;;;;;;10.13;4.80;;;5.60;99.90;;;5.77;82.86;101513.66;5074958;28;20520;-70
2021/01/26 08:01:25;;;;;;;8.67;5.80;;;5.60;99.90;;;5.64;83.77;101516.81;5092884;28;20070;-70
2021/01/26 08:03:54;;;;;;;13.90;5.70;;;5.60;99.90;;;5.65;85.01;101520.34;5092855;28;20052;-70
2021/01/26 08:06:50;;;;;;;12.50;6.67;;;5.60;99.90;;;5.72;85.11;101515.28;5093028;28;20036;-70
2021/01/26 08:09:37;;;;;;;15.20;7.20;;;5.60;99.90;;;5.73;85.62;101527.56;5092823;28;20101;-70
2021/01/26 08:12:08;;;;;;;16.53;6.90;;;5.70;99.90;;;5.68;86.09;101531.81;5091351;28;20048;-71
2021/01/26 08:14:45;;;;;;;20.93;7.13;;;5.70;99.90;;;5.76;86.25;101539.88;5074745;28;20052;-71
2021/01/26 08:17:15;;;;;;;21.23;6.87;;;5.70;99.90;;;5.74;86.31;101539.84;5093116;28;20060;-71
2021/01/26 08:19:47;;;;;;;13.10;6.10;;;5.70;99.90;;;5.80;85.64;101537.38;5074727;28;20175;-72
2021/01/26 08:22:23;;;;;;;7.67;5.30;;;5.70;99.90;;;5.84;84.55;101531.41;5092678;28;20040;-71
2021/01/26 08:25:04;;;;;;;7.93;4.40;;;5.70;99.90;;;5.09;83.19;101422.69;5092289;28;20066;-71
2021/01/26 08:28:01;;;;;;;5.93;5.00;;;5.70;99.90;;;5.96;82.83;101531.66;5092677;28;20044;-70
2021/01/26 08:31:00;;;;;;;7.70;4.43;;;5.80;99.90;;;5.99;82.79;101539.66;5074502;28;20044;-70
2021/01/26 08:33:31;;;;;;;6.40;5.17;;;5.80;99.90;;;6.05;82.67;101541.53;5092558;28;20036;-70
2021/01/26 08:36:33;;;;;;;7.90;5.03;;;5.90;99.90;;;6.08;82.55;101534.59;5074374;28;20051;-70
2021/01/26 08:39:08;;;;;;;9.20;5.67;;;6.00;99.90;;;6.26;82.67;101573.56;5092471;28;20079;-70
2021/01/26 08:41:48;;;;;;;10.03;5.43;;;6.10;99.90;;;6.35;82.39;101563.25;5090020;28;20050;-70
2021/01/26 08:44:52;;;;;;;15.57;5.55;;;6.20;99.90;;;6.47;82.71;101562.66;5095403;28;20071;-70
2021/01/26 08:47:44;;;;;;;11.87;5.30;;;6.30;99.90;;;6.42;82.99;101564.31;5096416;28;20059;-70
2021/01/26 08:50:25;;;;;;;18.43;6.80;;;6.30;99.90;;;6.48;83.08;101577.59;5096159;28;20040;-70
2021/01/26 08:52:57;;;;;;;19.53;6.73;;;6.30;99.90;;;6.46;83.26;101576.66;5096487;28;20052;-69
2021/01/26 08:55:40;;;;;;;22.50;7.60;;;6.40;99.90;;;6.56;83.83;101584.81;5096284;28;20052;-70
2021/01/26 08:58:12;;;;;;;24.07;7.97;;;6.40;99.90;;;6.61;83.59;101580.53;5096268;28;20047;-70
2021/01/26 09:00:44;;;;;;;18.20;6.97;;;6.50;99.90;;;6.68;83.55;101595.59;5077572;28;20048;-70
2021/01/26 09:03:35;;;;;;;21.50;7.80;;;6.60;99.90;;;6.66;83.55;101596.44;5077412;28;20509;-70
2021/01/26 09:06:07;;;;;;;18.90;8.20;;;6.50;99.90;;;6.79;83.55;101599.38;5095440;28;20032;-69
2021/01/26 09:08:52;;;;;;;22.07;8.53;;;6.60;99.90;;;6.94;82.89;101609.31;5095324;28;20522;-70
2021/01/26 09:11:48;;;;;;;21.63;7.83;;;6.70;99.90;;;6.93;82.53;101611.06;5095452;28;20052;-70
2021/01/26 09:14:29;;;;;;;23.03;7.43;;;6.80;99.90;;;6.86;83.00;101605.63;5095292;28;20040;-70
2021/01/26 09:17:01;;;;;;;24.37;8.17;;;6.70;99.90;;;6.99;82.36;101618.19;5095162;28;20059;-70
2021/01/26 09:19:36;;;;;;;20.00;7.47;;;6.80;99.90;;;7.05;82.46;101621.84;5077060;28;20118;-70
2021/01/26 09:22:11;;;;;;;19.80;7.63;;;6.90;99.90;;;7.03;82.12;101631.44;5095302;28;20094;-70
2021/01/26 09:24:40;;;;;;;23.70;7.53;;;6.90;99.90;;;6.92;82.21;101627.69;5095161;28;20127;-69
2021/01/26 09:27:24;;;;;;;23.03;7.47;;;6.80;99.90;;;6.93;82.32;101625.97;5095356;28;20040;-70
2021/01/26 09:30:21;;;;;;;21.67;8.37;;;6.80;99.90;;;6.98;82.45;101629.56;5094998;28;20458;-69
2021/01/26 09:33:03;;;;;;;21.10;7.23;;;6.80;99.90;;;7.04;82.36;101634.97;5049570;28;20067;-69
2021/01/26 09:35:36;;;;;;;26.27;9.33;;;6.80;99.90;;;7.07;82.16;101641.19;5095160;28;20328;-69
2021/01/26 09:38:08;;;;;;;23.53;7.60;;;7.00;99.90;;;7.06;82.57;101630.63;5095112;28;20055;-69
2021/01/26 09:40:38;;;;;;;24.50;7.87;;;6.90;99.90;;;7.12;82.33;101639.53;5094697;28;20048;-69
2021/01/26 09:43:20;;;;;;;27.88;7.03;;;7.00;99.90;;;7.05;81.74;101644.63;5076628;28;20043;-71
2021/01/26 09:46:02;;;;;;;30.10;7.83;;;7.00;99.90;;;7.06;82.08;101641.16;5094710;28;20052;-70
2021/01/26 09:48:36;;;;;;;30.20;7.83;;;6.90;99.90;;;7.01;82.07;101655.94;5094825;28;20040;-69
2021/01/26 09:51:14;;;;;;;19.97;7.27;;;6.90;99.90;;;7.17;81.88;101650.16;5094690;28;20048;-71
2021/01/26 09:53:44;;;;;;;18.53;6.67;;;7.00;99.90;;;7.21;81.29;101649.38;5094177;28;20048;-70
2021/01/26 09:56:17;;;;;;;13.32;6.32;;;7.10;99.90;;;7.38;81.66;101661.13;5094581;28;20047;-70
2021/01/26 09:58:45;;;;;;;19.00;5.57;;;7.20;99.90;;;7.66;79.90;101670.50;5094262;28;20523;-70
2021/01/26 10:01:15;;;;;;;15.17;5.63;;;7.40;99.90;;;7.76;78.98;101665.44;5076241;28;20476;-70
2021/01/26 10:03:44;;;;;;;14.65;5.57;;;7.60;99.90;;;7.71;78.47;101659.19;5094391;28;20044;-69
2021/01/26 10:06:12;;;;;;;10.68;4.97;;;7.80;99.90;;;7.90;77.50;101668.34;5094180;28;20043;-70
2021/01/26 10:08:40;;;;;;;9.10;4.20;;;7.80;99.90;;;7.93;76.83;101677.22;5075711;28;20467;-69
2021/01/26 10:11:11;;;;;;;12.07;4.93;;;7.90;99.90;;;7.98;76.81;101672.91;5076087;28;20074;-70
2021/01/26 10:13:40;;;;;;;10.63;4.72;;;7.90;99.90;;;8.03;76.76;101678.25;5094731;28;20082;-69
2021/01/26 10:16:35;;;;;;;12.50;4.87;;;7.90;99.90;;;7.91;75.92;101680.66;5094101;28;20067;-69
2021/01/26 10:19:11;;;;;;;16.97;4.73;;;7.80;99.90;;;7.85;76.07;101677.91;5094090;28;20135;-69
2021/01/26 10:21:39;;;;;;;10.52;4.95;;;7.80;99.90;;;7.99;76.43;101679.94;5093881;28;20044;-69
2021/01/26 10:24:11;;;;;;;16.23;5.68;;;7.80;99.90;;;7.94;76.23;101665.78;5093937;28;20048;-69
2021/01/26 10:26:42;;;;;;;10.55;5.32;;;7.80;99.90;;;8.15;76.48;101684.63;5093788;28;20052;-71
2021/01/26 10:29:23;;;;;;;13.80;4.82;;;7.90;99.90;;;8.19;76.56;101683.84;5093883;28;20187;-69
2021/01/26 10:31:55;;;;;;;11.57;4.80;;;7.90;99.90;;;8.20;76.43;101676.81;5094173;28;20043;-69
2021/01/26 10:34:40;;;;;;;11.27;5.00;;;7.90;99.90;;;8.13;76.14;101677.56;5093849;28;20040;-69
2021/01/26 10:37:30;;;;;;;15.40;5.22;;;7.90;99.90;;;8.08;76.20;101674.84;5075572;28;20344;-69
2021/01/26 10:40:32;;;;;;;18.23;6.40;;;7.90;99.90;;;8.15;76.01;101675.84;5093166;28;20139;-68
2021/01/26 10:43:05;;;;;;;20.25;6.47;;;7.90;99.90;;;8.17;76.14;101669.75;5076163;28;20059;-70
2021/01/26 10:45:44;;;;;;;13.73;6.55;;;8.00;99.90;;;8.00;76.73;101670.28;5094156;28;20056;-69
2021/01/26 10:48:26;;;;;;;19.88;6.70;;;7.80;99.90;;;8.23;76.45;101664.59;5075905;28;20513;-70
2021/01/26 10:50:56;;;;;;;15.23;7.03;;;8.00;99.90;;;8.29;76.18;101661.19;5094162;28;20439;-69
2021/01/26 10:53:35;;;;;;;18.73;6.85;;;8.10;99.90;;;8.49;76.63;101659.81;5094034;28;20384;-69
2021/01/26 10:56:04;;;;;;;21.23;7.32;;;8.30;99.90;;;8.51;75.68;101665.09;5075790;28;20052;-69
2021/01/26 10:58:32;;;;;;;23.40;6.55;;;8.30;99.90;;;8.74;75.89;101658.44;5075626;28;20048;-69
2021/01/26 11:01:00;;;;;;;16.88;6.10;;;8.60;99.90;;;8.80;74.68;101661.16;5093821;28;20062;-69
2021/01/26 11:03:28;;;;;;;19.48;7.03;;;8.70;99.90;;;9.05;74.66;101660.66;5093871;28;20037;-69